sensor_id;sensor_type;location;lat;lon;timestamp;pressure;altitude;pressure_sealevel;temperature;humidity
51715;BME280;39115;59.332;18.034;2023-09-12T00:00:07;100704.94;;;21.23;61.18
51715;BME280;39115;59.332;18.034;2023-09-12T00:02:27;100704.94;;;21.23;61.33
51715;BME280;39115;59.332;18.034;2023-09-12T00:04:49;100711.41;;;21.22;61.26
51715;BME280;39115;59.332;18.034;2023-09-12T00:07:11;100716.81;;;21.22;61.25
51715;BME280;39115;59.332;18.034;2023-09-12T00:09:31;100708.06;;;21.20;61.26
51715;BME280;39115;59.332;18.034;2023-09-12T00:11:52;100712.63;;;21.20;61.30
51715;BME280;39115;59.332;18.034;2023-09-12T00:14:16;100704.72;;;21.18;61.19
51715;BME280;39115;59.332;18.034;2023-09-12T00:16:37;100708.47;;;21.17;61.28
51715;BME280;39115;59.332;18.034;2023-09-12T00:18:58;100713.06;;;21.16;61.22
51715;BME280;39115;59.332;18.034;2023-09-12T00:21:18;100714.09;;;21.15;61.25
51715;BME280;39115;59.332;18.034;2023-09-12T00:23:39;100704.31;;;21.14;61.15
51715;BME280;39115;59.332;18.034;2023-09-12T00:26:00;100703.50;;;21.14;61.15
51715;BME280;39115;59.332;18.034;2023-09-12T00:28:20;100707.22;;;21.13;61.19
51715;BME280;39115;59.332;18.034;2023-09-12T00:30:41;100702.84;;;21.12;61.18
51715;BME280;39115;59.332;18.034;2023-09-12T00:33:02;100702.00;;;21.11;61.20
51715;BME280;39115;59.332;18.034;2023-09-12T00:35:22;100699.28;;;21.11;61.25
51715;BME280;39115;59.332;18.034;2023-09-12T00:37:43;100695.78;;;21.11;61.26
51715;BME280;39115;59.332;18.034;2023-09-12T00:40:04;100694.09;;;21.10;61.08
51715;BME280;39115;59.332;18.034;2023-09-12T00:42:25;100704.09;;;21.09;61.15
51715;BME280;39115;59.332;18.034;2023-09-12T00:44:46;100715.97;;;21.08;61.17
51715;BME280;39115;59.332;18.034;2023-09-12T00:47:08;100714.28;;;21.07;61.20
51715;BME280;39115;59.332;18.034;2023-09-12T00:49:30;100705.34;;;21.07;61.27
51715;BME280;39115;59.332;18.034;2023-09-12T00:51:52;100703.69;;;21.06;61.13
51715;BME280;39115;59.332;18.034;2023-09-12T00:54:13;100702.84;;;21.05;61.13
51715;BME280;39115;59.332;18.034;2023-09-12T00:56:34;100700.34;;;21.04;61.10
51715;BME280;39115;59.332;18.034;2023-09-12T00:58:55;100704.94;;;21.03;61.17
51715;BME280;39115;59.332;18.034;2023-09-12T01:01:18;100692.44;;;21.02;61.18
51715;BME280;39115;59.332;18.034;2023-09-12T01:03:39;100695.13;;;21.02;61.07
51715;BME280;39115;59.332;18.034;2023-09-12T01:06:00;100699.91;;;21.00;61.15
51715;BME280;39115;59.332;18.034;2023-09-12T01:08:20;100695.31;;;21.00;61.19
51715;BME280;39115;59.332;18.034;2023-09-12T01:10:41;100693.66;;;20.99;61.15
51715;BME280;39115;59.332;18.034;2023-09-12T01:13:06;100691.81;;;21.00;61.27
51715;BME280;39115;59.332;18.034;2023-09-12T01:15:26;100697.59;;;20.97;61.10
51715;BME280;39115;59.332;18.034;2023-09-12T01:17:47;100701.34;;;20.96;61.21
51715;BME280;39115;59.332;18.034;2023-09-12T01:20:14;100695.13;;;20.95;61.11
51715;BME280;39115;59.332;18.034;2023-09-12T01:28:13;100697.19;;;20.93;61.21
51715;BME280;39115;59.332;18.034;2023-09-12T01:30:39;100696.38;;;20.93;61.19
51715;BME280;39115;59.332;18.034;2023-09-12T01:32:59;100696.38;;;20.93;61.13
51715;BME280;39115;59.332;18.034;2023-09-12T01:35:20;100702.81;;;20.92;61.16
51715;BME280;39115;59.332;18.034;2023-09-12T01:37:41;100697.63;;;20.90;61.13
51715;BME280;39115;59.332;18.034;2023-09-12T01:40:03;100691.34;;;20.90;61.11
51715;BME280;39115;59.332;18.034;2023-09-12T01:42:24;100690.53;;;20.89;61.18
51715;BME280;39115;59.332;18.034;2023-09-12T01:44:55;100692.19;;;20.90;61.18
51715;BME280;39115;59.332;18.034;2023-09-12T01:47:16;100696.97;;;20.88;61.17
51715;BME280;39115;59.332;18.034;2023-09-12T01:49:44;100688.03;;;20.88;60.99
51715;BME280;39115;59.332;18.034;2023-09-12T01:52:07;100688.03;;;20.88;61.05
51715;BME280;39115;59.332;18.034;2023-09-12T01:54:28;100690.09;;;20.85;61.08
51715;BME280;39115;59.332;18.034;2023-09-12T01:56:49;100690.09;;;20.85;61.10
51715;BME280;39115;59.332;18.034;2023-09-12T01:59:10;100684.69;;;20.85;61.14
51715;BME280;39115;59.332;18.034;2023-09-12T02:01:31;100697.19;;;20.87;61.16
51715;BME280;39115;59.332;18.034;2023-09-12T02:03:52;100688.44;;;20.84;61.15
51715;BME280;39115;59.332;18.034;2023-09-12T02:06:12;100694.88;;;20.83;61.15
51715;BME280;39115;59.332;18.034;2023-09-12T02:08:33;100693.00;;;20.84;61.05
51715;BME280;39115;59.332;18.034;2023-09-12T02:10:54;100696.75;;;20.83;61.03
51715;BME280;39115;59.332;18.034;2023-09-12T02:13:15;100696.94;;;20.81;60.99
51715;BME280;39115;59.332;18.034;2023-09-12T02:15:35;100691.53;;;20.81;61.06
51715;BME280;39115;59.332;18.034;2023-09-12T02:17:56;100691.53;;;20.81;61.13
51715;BME280;39115;59.332;18.034;2023-09-12T02:20:16;100688.00;;;20.81;60.93
51715;BME280;39115;59.332;18.034;2023-09-12T02:22:37;100687.16;;;20.80;61.07
51715;BME280;39115;59.332;18.034;2023-09-12T02:24:57;100675.53;;;20.80;61.02
51715;BME280;39115;59.332;18.034;2023-09-12T02:27:18;100684.66;;;20.79;61.02
51715;BME280;39115;59.332;18.034;2023-09-12T02:29:41;100680.13;;;20.79;61.03
51715;BME280;39115;59.332;18.034;2023-09-12T02:32:01;100682.19;;;20.77;60.97
51715;BME280;39115;59.332;18.034;2023-09-12T02:34:23;100679.47;;;20.77;61.04
51715;BME280;39115;59.332;18.034;2023-09-12T02:36:43;100683.22;;;20.76;60.92
51715;BME280;39115;59.332;18.034;2023-09-12T02:39:04;100676.78;;;20.77;61.03
51715;BME280;39115;59.332;18.034;2023-09-12T02:41:24;100680.50;;;20.76;61.08
51715;BME280;39115;59.332;18.034;2023-09-12T02:43:45;100680.72;;;20.75;61.05
51715;BME280;39115;59.332;18.034;2023-09-12T02:46:06;100685.09;;;20.76;61.09
51715;BME280;39115;59.332;18.034;2023-09-12T02:48:26;100683.41;;;20.75;60.93
51715;BME280;39115;59.332;18.034;2023-09-12T02:50:47;100678.00;;;20.75;61.02
51715;BME280;39115;59.332;18.034;2023-09-12T02:53:07;100681.75;;;20.74;60.91
51715;BME280;39115;59.332;18.034;2023-09-12T02:55:28;100677.38;;;20.73;60.93
51715;BME280;39115;59.332;18.034;2023-09-12T02:57:48;100681.94;;;20.72;60.92
51715;BME280;39115;59.332;18.034;2023-09-12T03:00:09;100673.19;;;20.70;61.04
51715;BME280;39115;59.332;18.034;2023-09-12T03:02:31;100674.00;;;20.70;60.90
51715;BME280;39115;59.332;18.034;2023-09-12T03:04:52;100676.72;;;20.70;60.88
51715;BME280;39115;59.332;18.034;2023-09-12T03:07:12;100687.72;;;20.69;60.91
51715;BME280;39115;59.332;18.034;2023-09-12T03:09:33;100689.41;;;20.70;61.03
51715;BME280;39115;59.332;18.034;2023-09-12T03:11:53;100684.19;;;20.68;60.89
51715;BME280;39115;59.332;18.034;2023-09-12T03:14:14;100688.78;;;20.68;60.93
51715;BME280;39115;59.332;18.034;2023-09-12T03:16:34;100682.53;;;20.67;61.07
51715;BME280;39115;59.332;18.034;2023-09-12T03:18:56;100682.53;;;20.67;60.91
51715;BME280;39115;59.332;18.034;2023-09-12T03:21:18;100686.06;;;20.68;60.82
51715;BME280;39115;59.332;18.034;2023-09-12T03:23:38;100687.09;;;20.67;61.02
51715;BME280;39115;59.332;18.034;2023-09-12T03:26:03;100691.69;;;20.66;60.86
51715;BME280;39115;59.332;18.034;2023-09-12T03:28:24;100686.28;;;20.66;61.01
51715;BME280;39115;59.332;18.034;2023-09-12T03:30:44;100690.22;;;20.64;61.02
51715;BME280;39115;59.332;18.034;2023-09-12T03:33:05;100692.94;;;20.64;61.01
51715;BME280;39115;59.332;18.034;2023-09-12T03:35:28;100692.06;;;20.63;61.08
51715;BME280;39115;59.332;18.034;2023-09-12T03:37:48;100694.78;;;20.63;60.87
51715;BME280;39115;59.332;18.034;2023-09-12T03:40:09;100697.50;;;20.63;60.97
51715;BME280;39115;59.332;18.034;2023-09-12T03:42:31;100701.22;;;20.62;61.03
51715;BME280;39115;59.332;18.034;2023-09-12T03:44:51;100692.28;;;20.62;61.03
51715;BME280;39115;59.332;18.034;2023-09-12T03:47:12;100693.31;;;20.61;61.05
51715;BME280;39115;59.332;18.034;2023-09-12T03:49:32;100693.31;;;20.61;60.86
51715;BME280;39115;59.332;18.034;2023-09-12T03:51:53;100687.91;;;20.61;60.91
51715;BME280;39115;59.332;18.034;2023-09-12T03:54:13;100689.81;;;20.60;60.93
51715;BME280;39115;59.332;18.034;2023-09-12T03:56:34;100678.97;;;20.60;60.93
51715;BME280;39115;59.332;18.034;2023-09-12T03:58:55;100683.53;;;20.60;60.91
51715;BME280;39115;59.332;18.034;2023-09-12T04:01:18;100679.16;;;20.59;60.81
51715;BME280;39115;59.332;18.034;2023-09-12T04:03:38;100677.31;;;20.59;60.96
51715;BME280;39115;59.332;18.034;2023-09-12T04:05:59;100675.63;;;20.58;60.95
51715;BME280;39115;59.332;18.034;2023-09-12T04:08:20;100673.75;;;20.59;60.98
51715;BME280;39115;59.332;18.034;2023-09-12T04:10:40;100678.34;;;20.58;60.90
51715;BME280;39115;59.332;18.034;2023-09-12T04:13:01;100676.66;;;20.57;60.88
51715;BME280;39115;59.332;18.034;2023-09-12T04:15:22;100675.63;;;20.58;60.95
51715;BME280;39115;59.332;18.034;2023-09-12T04:17:42;100675.00;;;20.56;60.92
51715;BME280;39115;59.332;18.034;2023-09-12T04:20:03;100671.25;;;20.57;60.93
51715;BME280;39115;59.332;18.034;2023-09-12T04:22:27;100666.06;;;20.56;60.88
51715;BME280;39115;59.332;18.034;2023-09-12T04:24:48;100676.03;;;20.55;60.94
51715;BME280;39115;59.332;18.034;2023-09-12T04:27:09;100672.50;;;20.54;60.76
51715;BME280;39115;59.332;18.034;2023-09-12T04:29:32;100668.94;;;20.54;60.84
51715;BME280;39115;59.332;18.034;2023-09-12T04:31:53;100672.50;;;20.54;60.75
51715;BME280;39115;59.332;18.034;2023-09-12T04:34:19;100665.44;;;20.53;60.76
51715;BME280;39115;59.332;18.034;2023-09-12T04:36:40;100667.50;;;20.51;60.79
51715;BME280;39115;59.332;18.034;2023-09-12T04:39:01;100665.44;;;20.53;60.92
51715;BME280;39115;59.332;18.034;2023-09-12T04:41:21;100653.97;;;20.51;60.90
51715;BME280;39115;59.332;18.034;2023-09-12T04:43:45;100653.97;;;20.51;60.95
51715;BME280;39115;59.332;18.034;2023-09-12T04:46:05;100662.09;;;20.51;60.77
51715;BME280;39115;59.332;18.034;2023-09-12T04:48:26;100652.31;;;20.50;60.86
51715;BME280;39115;59.332;18.034;2023-09-12T04:50:46;100653.16;;;20.51;60.75
51715;BME280;39115;59.332;18.034;2023-09-12T04:53:07;100651.50;;;20.50;60.87
51715;BME280;39115;59.332;18.034;2023-09-12T04:55:27;100652.31;;;20.50;60.74
51715;BME280;39115;59.332;18.034;2023-09-12T04:57:49;100649.59;;;20.50;60.74
51715;BME280;39115;59.332;18.034;2023-09-12T05:00:10;100651.50;;;20.50;60.81
51715;BME280;39115;59.332;18.034;2023-09-12T05:02:31;100654.41;;;20.48;60.71
51715;BME280;39115;59.332;18.034;2023-09-12T05:04:51;100654.41;;;20.48;60.83
51715;BME280;39115;59.332;18.034;2023-09-12T05:07:12;100658.97;;;20.48;60.79
51715;BME280;39115;59.332;18.034;2023-09-12T05:09:33;100655.44;;;20.47;60.78
51715;BME280;39115;59.332;18.034;2023-09-12T05:11:53;100653.75;;;20.46;60.86
51715;BME280;39115;59.332;18.034;2023-09-12T05:14:14;100648.34;;;20.46;60.81
51715;BME280;39115;59.332;18.034;2023-09-12T05:16:34;100653.75;;;20.46;60.88
51715;BME280;39115;59.332;18.034;2023-09-12T05:18:55;100667.06;;;20.48;60.75
51715;BME280;39115;59.332;18.034;2023-09-12T05:21:15;100661.88;;;20.46;60.81
51715;BME280;39115;59.332;18.034;2023-09-12T05:23:36;100655.63;;;20.46;60.69
51715;BME280;39115;59.332;18.034;2023-09-12T05:25:57;100658.31;;;20.46;60.80
51715;BME280;39115;59.332;18.034;2023-09-12T05:28:18;100650.22;;;20.46;60.81
51715;BME280;39115;59.332;18.034;2023-09-12T05:30:39;100640.47;;;20.45;60.84
51715;BME280;39115;59.332;18.034;2023-09-12T05:32:59;100645.88;;;20.45;60.70
51715;BME280;39115;59.332;18.034;2023-09-12T05:35:20;100643.16;;;20.45;60.69
51715;BME280;39115;59.332;18.034;2023-09-12T05:37:40;100639.59;;;20.44;60.77
51715;BME280;39115;59.332;18.034;2023-09-12T05:40:01;100639.59;;;20.44;60.81
51715;BME280;39115;59.332;18.034;2023-09-12T05:42:23;100643.34;;;20.43;60.79
51715;BME280;39115;59.332;18.034;2023-09-12T05:44:43;100643.34;;;20.43;60.72
51715;BME280;39115;59.332;18.034;2023-09-12T05:47:04;100646.03;;;20.43;60.70
51715;BME280;39115;59.332;18.034;2023-09-12T05:49:27;100651.44;;;20.43;60.70
51715;BME280;39115;59.332;18.034;2023-09-12T05:51:47;100656.84;;;20.43;60.75
51715;BME280;39115;59.332;18.034;2023-09-12T05:54:09;100656.03;;;20.43;60.79
51715;BME280;39115;59.332;18.034;2023-09-12T05:56:30;100655.19;;;20.42;60.87
51715;BME280;39115;59.332;18.034;2023-09-12T05:58:50;100660.59;;;20.42;60.70
51715;BME280;39115;59.332;18.034;2023-09-12T06:01:11;100658.91;;;20.41;60.66
51715;BME280;39115;59.332;18.034;2023-09-12T06:03:31;100648.97;;;20.42;60.64
51715;BME280;39115;59.332;18.034;2023-09-12T06:05:52;100654.38;;;20.42;60.66
51715;BME280;39115;59.332;18.034;2023-09-12T06:08:12;100657.06;;;20.42;60.64
51715;BME280;39115;59.332;18.034;2023-09-12T06:10:33;100653.50;;;20.41;60.62
51715;BME280;39115;59.332;18.034;2023-09-12T06:12:54;100660.81;;;20.41;60.77
51715;BME280;39115;59.332;18.034;2023-09-12T06:15:14;100655.41;;;20.41;60.82
51715;BME280;39115;59.332;18.034;2023-09-12T06:17:35;100656.22;;;20.41;60.58
51715;BME280;39115;59.332;18.034;2023-09-12T06:19:56;100657.06;;;20.42;60.72
51715;BME280;39115;59.332;18.034;2023-09-12T06:22:17;100651.66;;;20.42;60.83
51715;BME280;39115;59.332;18.034;2023-09-12T06:24:37;100650.81;;;20.41;60.76
51715;BME280;39115;59.332;18.034;2023-09-12T06:26:59;100649.16;;;20.40;60.77
51715;BME280;39115;59.332;18.034;2023-09-12T06:29:20;100655.41;;;20.41;60.72
51715;BME280;39115;59.332;18.034;2023-09-12T06:31:41;100651.88;;;20.40;60.74
51715;BME280;39115;59.332;18.034;2023-09-12T06:34:02;100662.47;;;20.42;60.96
51715;BME280;39115;59.332;18.034;2023-09-12T06:36:24;100658.91;;;20.41;60.67
51715;BME280;39115;59.332;18.034;2023-09-12T06:38:45;100662.69;;;20.40;60.70
51715;BME280;39115;59.332;18.034;2023-09-12T06:41:06;100651.66;;;20.42;60.73
51715;BME280;39115;59.332;18.034;2023-09-12T06:43:26;100647.28;;;20.41;60.71
51715;BME280;39115;59.332;18.034;2023-09-12T06:45:47;100649.16;;;20.40;60.50
51715;BME280;39115;59.332;18.034;2023-09-12T06:48:08;100657.28;;;20.40;60.67
51715;BME280;39115;59.332;18.034;2023-09-12T06:50:29;100659.97;;;20.40;60.50
51715;BME280;39115;59.332;18.034;2023-09-12T06:52:49;100656.22;;;20.41;60.71
51715;BME280;39115;59.332;18.034;2023-09-12T06:55:10;100650.00;;;20.41;60.61
51715;BME280;39115;59.332;18.034;2023-09-12T06:57:30;100646.47;;;20.40;60.72
51715;BME280;39115;59.332;18.034;2023-09-12T06:59:51;100654.56;;;20.40;60.53
51715;BME280;39115;59.332;18.034;2023-09-12T07:02:11;100648.09;;;20.41;60.57
51715;BME280;39115;59.332;18.034;2023-09-12T07:04:33;100641.88;;;20.41;60.68
51715;BME280;39115;59.332;18.034;2023-09-12T07:06:53;100647.28;;;20.41;60.58
51715;BME280;39115;59.332;18.034;2023-09-12T07:09:14;100640.00;;;20.41;60.54
51715;BME280;39115;59.332;18.034;2023-09-12T07:11:35;100631.06;;;20.41;60.66
51715;BME280;39115;59.332;18.034;2023-09-12T07:13:55;100631.88;;;20.41;60.52
51715;BME280;39115;59.332;18.034;2023-09-12T07:16:16;100632.75;;;20.42;60.58
51715;BME280;39115;59.332;18.034;2023-09-12T07:18:36;100628.38;;;20.41;60.59
51715;BME280;39115;59.332;18.034;2023-09-12T07:21:01;100628.38;;;20.41;60.60
51715;BME280;39115;59.332;18.034;2023-09-12T07:23:23;100641.66;;;20.42;60.58
51715;BME280;39115;59.332;18.034;2023-09-12T07:25:43;100640.00;;;20.41;60.50
51715;BME280;39115;59.332;18.034;2023-09-12T07:28:04;100628.16;;;20.42;60.49
51715;BME280;39115;59.332;18.034;2023-09-12T07:30:25;100626.47;;;20.41;60.56
51715;BME280;39115;59.332;18.034;2023-09-12T07:32:45;100624.63;;;20.42;60.50
51715;BME280;39115;59.332;18.034;2023-09-12T07:35:06;100634.41;;;20.43;60.60
51715;BME280;39115;59.332;18.034;2023-09-12T07:37:27;100646.25;;;20.42;60.72
51715;BME280;39115;59.332;18.034;2023-09-12T07:39:47;100630.84;;;20.42;60.58
51715;BME280;39115;59.332;18.034;2023-09-12T07:42:08;100627.34;;;20.42;60.58
51715;BME280;39115;59.332;18.034;2023-09-12T07:44:28;100631.72;;;20.43;60.51
51715;BME280;39115;59.332;18.034;2023-09-12T07:46:49;100629.81;;;20.43;60.58
51715;BME280;39115;59.332;18.034;2023-09-12T07:49:10;100635.44;;;20.42;60.66
51715;BME280;39115;59.332;18.034;2023-09-12T07:51:30;100638.78;;;20.44;60.53
51715;BME280;39115;59.332;18.034;2023-09-12T07:53:51;100645.22;;;20.43;60.65
51715;BME280;39115;59.332;18.034;2023-09-12T07:56:11;100642.53;;;20.43;60.58
51715;BME280;39115;59.332;18.034;2023-09-12T07:58:32;100639.81;;;20.43;60.67
51715;BME280;39115;59.332;18.034;2023-09-12T08:00:53;100637.94;;;20.43;60.59
51715;BME280;39115;59.332;18.034;2023-09-12T08:03:13;100640.63;;;20.43;60.51
51715;BME280;39115;59.332;18.034;2023-09-12T08:05:35;100643.34;;;20.43;60.41
51715;BME280;39115;59.332;18.034;2023-09-12T08:07:56;100633.38;;;20.44;60.63
51715;BME280;39115;59.332;18.034;2023-09-12T08:10:16;100640.63;;;20.43;60.50
51715;BME280;39115;59.332;18.034;2023-09-12T08:12:37;100634.19;;;20.44;60.42
51715;BME280;39115;59.332;18.034;2023-09-12T08:15:02;100631.50;;;20.44;60.43
51715;BME280;39115;59.332;18.034;2023-09-12T08:17:23;100637.75;;;20.45;60.46
51715;BME280;39115;59.332;18.034;2023-09-12T08:19:43;100638.56;;;20.45;60.60
51715;BME280;39115;59.332;18.034;2023-09-12T08:22:05;100621.31;;;20.46;60.40
51715;BME280;39115;59.332;18.034;2023-09-12T08:24:26;100629.44;;;20.46;60.55
51715;BME280;39115;59.332;18.034;2023-09-12T08:26:46;100624.03;;;20.46;60.53
51715;BME280;39115;59.332;18.034;2023-09-12T08:29:07;100623.19;;;20.46;60.60
51715;BME280;39115;59.332;18.034;2023-09-12T08:31:27;100629.44;;;20.46;60.51
51715;BME280;39115;59.332;18.034;2023-09-12T08:33:48;100629.44;;;20.46;60.38
51715;BME280;39115;59.332;18.034;2023-09-12T08:36:08;100638.38;;;20.47;60.41
51715;BME280;39115;59.332;18.034;2023-09-12T08:38:29;100637.53;;;20.46;60.52
51715;BME280;39115;59.332;18.034;2023-09-12T08:40:50;100643.59;;;20.48;60.44
51715;BME280;39115;59.332;18.034;2023-09-12T08:43:11;100636.50;;;20.47;60.45
51715;BME280;39115;59.332;18.034;2023-09-12T08:45:32;100637.13;;;20.49;60.35
51715;BME280;39115;59.332;18.034;2023-09-12T08:47:53;100631.94;;;20.48;60.52
51715;BME280;39115;59.332;18.034;2023-09-12T08:50:16;100639.81;;;20.49;60.36
51715;BME280;39115;59.332;18.034;2023-09-12T08:52:36;100635.25;;;20.50;60.51
51715;BME280;39115;59.332;18.034;2023-09-12T08:54:57;100638.78;;;20.50;60.51
51715;BME280;39115;59.332;18.034;2023-09-12T08:57:18;100634.22;;;20.51;60.34
51715;BME280;39115;59.332;18.034;2023-09-12T08:59:40;100629.66;;;20.51;60.36
51715;BME280;39115;59.332;18.034;2023-09-12T09:02:07;100637.53;;;20.53;60.39
51715;BME280;39115;59.332;18.034;2023-09-12T09:04:30;100634.03;;;20.52;60.34
51715;BME280;39115;59.332;18.034;2023-09-12T09:06:51;100642.94;;;20.53;60.51
51715;BME280;39115;59.332;18.034;2023-09-12T09:09:12;100644.63;;;20.54;60.28
51715;BME280;39115;59.332;18.034;2023-09-12T09:11:33;100645.47;;;20.54;60.34
51715;BME280;39115;59.332;18.034;2023-09-12T09:13:55;100640.06;;;20.54;60.76
51715;BME280;39115;59.332;18.034;2023-09-12T09:16:17;100640.88;;;20.55;60.30
51715;BME280;39115;59.332;18.034;2023-09-12T09:18:58;100645.06;;;20.58;60.29
51715;BME280;39115;59.332;18.034;2023-09-12T09:21:22;100650.66;;;20.56;60.39
51715;BME280;39115;59.332;18.034;2023-09-12T09:23:47;100637.16;;;20.56;60.30
51715;BME280;39115;59.332;18.034;2023-09-12T09:26:08;100641.53;;;20.57;60.36
51715;BME280;39115;59.332;18.034;2023-09-12T09:28:28;100641.53;;;20.57;60.37
51715;BME280;39115;59.332;18.034;2023-09-12T09:30:50;100638.59;;;20.59;60.33
51715;BME280;39115;59.332;18.034;2023-09-12T09:33:12;100632.16;;;20.60;60.42
51715;BME280;39115;59.332;18.034;2023-09-12T09:35:33;100638.44;;;20.60;60.36
51715;BME280;39115;59.332;18.034;2023-09-12T09:37:54;100631.13;;;20.61;60.28
51715;BME280;39115;59.332;18.034;2023-09-12T09:40:15;100628.22;;;20.62;60.34
51715;BME280;39115;59.332;18.034;2023-09-12T09:42:36;100622.00;;;20.62;60.34
51715;BME280;39115;59.332;18.034;2023-09-12T09:44:57;100621.78;;;20.63;60.34
51715;BME280;39115;59.332;18.034;2023-09-12T09:47:18;100623.44;;;20.64;60.26
51715;BME280;39115;59.332;18.034;2023-09-12T09:49:39;100623.44;;;20.64;60.21
51715;BME280;39115;59.332;18.034;2023-09-12T09:52:03;100617.81;;;20.66;60.42
51715;BME280;39115;59.332;18.034;2023-09-12T09:54:25;100612.41;;;20.66;60.23
51715;BME280;39115;59.332;18.034;2023-09-12T09:56:47;100618.47;;;20.68;60.36
51715;BME280;39115;59.332;18.034;2023-09-12T09:59:14;100617.66;;;20.67;60.25
51715;BME280;39115;59.332;18.034;2023-09-12T10:01:35;100619.09;;;20.70;60.33
51715;BME280;39115;59.332;18.034;2023-09-12T10:04:01;100612.84;;;20.69;60.29
51715;BME280;39115;59.332;18.034;2023-09-12T10:06:23;100616.41;;;20.70;60.35
51715;BME280;39115;59.332;18.034;2023-09-12T10:08:46;100617.03;;;20.72;60.18
51715;BME280;39115;59.332;18.034;2023-09-12T10:11:08;100607.25;;;20.71;60.21
51715;BME280;39115;59.332;18.034;2023-09-12T10:13:29;100609.56;;;20.74;60.18
51715;BME280;39115;59.332;18.034;2023-09-12T10:15:54;100614.16;;;20.74;60.20
51715;BME280;39115;59.332;18.034;2023-09-12T10:18:19;100616.63;;;20.75;60.16
51715;BME280;39115;59.332;18.034;2023-09-12T10:20:48;100612.91;;;20.76;60.42
51715;BME280;39115;59.332;18.034;2023-09-12T10:23:25;100610.81;;;20.78;60.23
51715;BME280;39115;59.332;18.034;2023-09-12T10:25:49;100612.69;;;20.78;60.24
51715;BME280;39115;59.332;18.034;2023-09-12T10:28:10;100610.63;;;20.80;60.29
51715;BME280;39115;59.332;18.034;2023-09-12T10:30:36;100614.13;;;20.80;60.20
51715;BME280;39115;59.332;18.034;2023-09-12T10:32:57;100620.19;;;20.82;60.50
51715;BME280;39115;59.332;18.034;2023-09-12T10:35:18;100617.47;;;20.82;60.10
51715;BME280;39115;59.332;18.034;2023-09-12T10:37:41;100619.97;;;20.84;60.29
51715;BME280;39115;59.332;18.034;2023-09-12T10:40:05;100616.22;;;20.85;60.25
51715;BME280;39115;59.332;18.034;2023-09-12T10:42:28;100616.03;;;20.87;60.17
51715;BME280;39115;59.332;18.034;2023-09-12T10:44:50;100608.75;;;20.87;60.25
51715;BME280;39115;59.332;18.034;2023-09-12T10:47:12;100612.09;;;20.89;60.10
51715;BME280;39115;59.332;18.034;2023-09-12T10:49:34;100604.78;;;20.90;60.16
51715;BME280;39115;59.332;18.034;2023-09-12T10:51:55;100606.47;;;20.91;60.14
51715;BME280;39115;59.332;18.034;2023-09-12T10:54:35;100603.53;;;20.92;60.05
51715;BME280;39115;59.332;18.034;2023-09-12T10:57:06;100596.91;;;20.95;60.03
51715;BME280;39115;59.332;18.034;2023-09-12T10:59:27;100604.19;;;20.94;60.14
51715;BME280;39115;59.332;18.034;2023-09-12T11:01:51;100596.91;;;20.95;60.12
51715;BME280;39115;59.332;18.034;2023-09-12T11:06:39;100594.63;;;20.98;60.18
51715;BME280;39115;59.332;18.034;2023-09-12T11:11:35;100585.44;;;20.99;60.02
51715;BME280;39115;59.332;18.034;2023-09-12T11:14:03;100583.38;;;21.01;60.01
51715;BME280;39115;59.332;18.034;2023-09-12T11:16:24;100585.03;;;21.03;59.98
51715;BME280;39115;59.332;18.034;2023-09-12T11:19:18;100590.03;;;21.06;60.06
51715;BME280;39115;59.332;18.034;2023-09-12T11:21:40;100597.13;;;21.07;59.98
51715;BME280;39115;59.332;18.034;2023-09-12T11:24:00;100604.16;;;21.08;60.03
51715;BME280;39115;59.332;18.034;2023-09-12T11:26:21;100603.97;;;21.09;60.10
51715;BME280;39115;59.332;18.034;2023-09-12T11:28:41;100613.56;;;21.12;60.09
51715;BME280;39115;59.332;18.034;2023-09-12T11:31:05;100611.47;;;21.14;60.01
51715;BME280;39115;59.332;18.034;2023-09-12T11:33:26;100616.69;;;21.15;60.05
51715;BME280;39115;59.332;18.034;2023-09-12T11:35:52;100621.06;;;21.16;59.85
51715;BME280;39115;59.332;18.034;2023-09-12T11:38:26;100614.59;;;21.17;60.05
51715;BME280;39115;59.332;18.034;2023-09-12T11:40:48;100615.22;;;21.20;59.77
51715;BME280;39115;59.332;18.034;2023-09-12T11:43:19;100623.13;;;21.21;60.03
51715;BME280;39115;59.332;18.034;2023-09-12T11:45:43;100624.81;;;21.22;60.06
51715;BME280;39115;59.332;18.034;2023-09-12T11:48:04;100621.88;;;21.24;59.97
51715;BME280;39115;59.332;18.034;2023-09-12T11:50:33;100624.38;;;21.25;59.96
51715;BME280;39115;59.332;18.034;2023-09-12T11:53:03;100626.03;;;21.26;60.00
51715;BME280;39115;59.332;18.034;2023-09-12T11:55:24;100626.69;;;21.28;59.83
51715;BME280;39115;59.332;18.034;2023-09-12T11:57:45;100617.53;;;21.29;59.83
51715;BME280;39115;59.332;18.034;2023-09-12T12:00:06;100623.75;;;21.30;59.83
51715;BME280;39115;59.332;18.034;2023-09-12T12:02:40;100618.97;;;21.32;59.88
51715;BME280;39115;59.332;18.034;2023-09-12T12:05:04;100623.34;;;21.33;59.91
51715;BME280;39115;59.332;18.034;2023-09-12T12:07:24;100622.09;;;21.36;59.95
51715;BME280;39115;59.332;18.034;2023-09-12T12:09:45;100632.47;;;21.39;59.82
51715;BME280;39115;59.332;18.034;2023-09-12T12:12:12;100627.06;;;21.39;59.89
51715;BME280;39115;59.332;18.034;2023-09-12T12:14:34;100629.59;;;21.40;59.79
51715;BME280;39115;59.332;18.034;2023-09-12T12:16:55;100637.50;;;21.42;59.86
51715;BME280;39115;59.332;18.034;2023-09-12T12:19:16;100629.16;;;21.43;59.85
51715;BME280;39115;59.332;18.034;2023-09-12T12:21:41;100633.34;;;21.46;59.87